Time;durP1;ratioP1;P1;durP2;ratioP2;P2;SDS_P1;SDS_P2;PMS_P1;PMS_P2;Temp;Humidity;BMP_temperature;BMP_pressure;BME280_temperature;BME280_humidity;BME280_pressure;Samples;Min_cycle;Max_cycle;Signal;HPM_P1;HPM_P2
2023/05/06 00:05:19;;;;;;;10.17;7.70;;;9.40;99.90;;;;;;6297098;22;20436;-87
2023/05/06 00:07:46;;;;;;;10.57;8.33;;;10.50;86.70;;;;;;6296689;22;20437;-87
2023/05/06 00:10:14;;;;;;;14.20;8.83;;;;;;;;;;6296011;22;20397;-87
2023/05/06 00:12:42;;;;;;;10.47;7.87;;;;;;;;;;6296139;22;20468;-87
2023/05/06 00:15:10;;;;;;;11.60;8.43;;;10.30;99.90;;;;;;6296634;22;20397;-87
2023/05/06 00:30:36;;;;;;;8.50;7.33;;;9.90;99.90;;;;;;6229638;22;21667;-87
2023/05/06 00:33:03;;;;;;;14.13;10.10;;;10.10;3.20;;;;;;6302622;22;20373;-87
2023/05/06 00:35:30;;;;;;;11.40;8.10;;;10.10;24.70;;;;;;6286157;22;20432;-87
2023/05/06 00:38:06;;;;;;;14.47;8.93;;;10.20;99.90;;;;;;6286065;22;20412;-87
2023/05/06 00:40:33;;;;;;;11.20;9.90;;;10.00;99.90;;;;;;6287475;22;20340;-87
2023/05/06 00:43:00;;;;;;;12.50;9.37;;;10.10;96.50;;;;;;6287088;22;20436;-87
2023/05/06 00:45:26;;;;;;;11.93;8.97;;;10.40;99.90;;;;;;6290515;22;20409;-86
2023/05/06 00:47:56;;;;;;;12.80;8.50;;;10.10;99.90;;;;;;6290528;22;20423;-87
2023/05/06 00:50:23;;;;;;;12.27;9.93;;;10.00;99.90;;;;;;6302965;22;20409;-85
2023/05/06 00:52:50;;;;;;;13.63;9.00;;;;;;;;;;6301231;22;20397;-87
2023/05/06 00:55:17;;;;;;;16.90;10.80;;;10.70;99.90;;;;;;6302717;22;20389;-86
2023/05/06 00:57:45;;;;;;;14.63;10.40;;;10.10;99.90;;;;;;6302326;22;20432;-87
2023/05/06 01:00:13;;;;;;;13.53;9.60;;;10.10;99.90;;;;;;6300765;22;20405;-87
2023/05/06 01:02:40;;;;;;;11.40;9.43;;;10.00;99.90;;;;;;6292435;22;20406;-86
2023/05/06 01:05:09;;;;;;;9.97;8.80;;;10.10;99.90;;;;;;6287449;22;20903;-86
2023/05/06 01:07:42;;;;;;;12.10;9.33;;;10.00;99.90;;;;;;6289150;22;20465;-87
2023/05/06 01:10:19;;;;;;;14.20;9.07;;;10.00;99.90;;;;;;6289378;22;20390;-88
2023/05/06 01:12:52;;;;;;;11.50;10.23;;;10.00;99.90;;;;;;6290672;22;20390;-87
2023/05/06 01:15:25;;;;;;;9.93;8.77;;;10.00;99.90;;;;;;6291322;22;20368;-87
2023/05/06 01:17:54;;;;;;;13.40;10.40;;;9.90;99.90;;;;;;6290732;22;20469;-87
2023/05/06 01:20:24;;;;;;;12.40;9.40;;;9.80;99.90;;;;;;6290322;22;20409;-86
2023/05/06 01:22:51;;;;;;;14.10;9.07;;;10.00;99.90;;;;;;6294736;22;20410;-86
2023/05/06 01:25:20;;;;;;;10.73;8.50;;;9.90;99.90;;;;;;6300131;22;20380;-87
2023/05/06 01:27:47;;;;;;;13.47;10.00;;;;;;;;;;6300608;22;20451;-87
2023/05/06 01:30:15;;;;;;;11.80;9.87;;;9.90;99.90;;;;;;6292648;22;20401;-87
2023/05/06 01:32:52;;;;;;;11.37;9.43;;;9.90;99.90;;;;;;6293970;22;20444;-88
2023/05/06 01:35:27;;;;;;;12.30;10.40;;;9.70;99.90;;;;;;6290735;22;20385;-86
2023/05/06 01:38:04;;;;;;;12.60;9.57;;;9.90;99.90;;;;;;6289532;22;20385;-87
2023/05/06 01:40:33;;;;;;;11.33;9.40;;;9.80;99.90;;;;;;6287000;22;20847;-87
2023/05/06 01:43:02;;;;;;;12.30;9.60;;;10.20;99.90;;;;;;6300596;22;20431;-87
2023/05/06 01:45:31;;;;;;;11.07;9.70;;;10.00;99.90;;;;;;6303113;22;20421;-86
2023/05/06 01:47:59;;;;;;;11.50;8.87;;;9.80;99.90;;;;;;6287666;22;20444;-87
2023/05/06 01:50:26;;;;;;;10.93;9.77;;;10.00;99.90;;;;;;6286819;22;20757;-87
2023/05/06 01:52:58;;;;;;;13.23;9.93;;;9.60;99.90;;;;;;6303909;22;20372;-86
2023/05/06 01:55:25;;;;;;;13.33;10.63;;;9.60;99.90;;;;;;6295945;22;20425;-86
2023/05/06 01:57:54;;;;;;;13.33;9.47;;;9.70;99.90;;;;;;6294535;22;20484;-87
2023/05/06 02:00:21;;;;;;;11.70;9.60;;;9.70;99.90;;;;;;6298503;22;20393;-85
2023/05/06 02:02:48;;;;;;;12.40;9.40;;;9.60;99.90;;;;;;6296935;22;20376;-86
2023/05/06 02:05:15;;;;;;;9.77;8.77;;;9.50;99.90;;;;;;6295721;22;20436;-87
2023/05/06 02:07:42;;;;;;;12.20;8.87;;;;;;;;;;6296266;22;20444;-87
2023/05/06 02:10:12;;;;;;;12.77;9.33;;;9.30;99.90;;;;;;6300040;22;20392;-86
2023/05/06 02:12:38;;;;;;;12.20;9.07;;;9.20;99.90;;;;;;6299343;22;20449;-86
2023/05/06 02:15:08;;;;;;;10.60;8.43;;;9.30;99.90;;;;;;6298584;22;20409;-87
2023/05/06 02:17:36;;;;;;;14.97;9.17;;;9.30;99.90;;;;;;6294520;22;20360;-87
2023/05/06 02:20:03;;;;;;;11.60;9.93;;;9.00;99.90;;;;;;6286474;22;20424;-87
2023/05/06 02:22:30;;;;;;;11.10;8.50;;;9.30;99.90;;;;;;6285371;22;20479;-87
2023/05/06 02:24:57;;;;;;;10.93;8.73;;;9.30;99.90;;;;;;6286038;22;20435;-87
2023/05/06 02:27:23;;;;;;;11.80;8.60;;;9.60;99.90;;;;;;6285642;22;20424;-87
2023/05/06 02:29:50;;;;;;;11.97;8.30;;;9.50;99.90;;;;;;6285107;22;20443;-87
2023/05/06 02:32:19;;;;;;;10.40;9.10;;;9.30;99.90;;;;;;6286192;22;20444;-87
2023/05/06 02:34:45;;;;;;;12.63;9.40;;;9.10;99.90;;;;;;6293604;22;20402;-87
2023/05/06 02:37:12;;;;;;;11.63;7.90;;;9.20;99.90;;;;;;6298116;22;20403;-87
2023/05/06 02:39:41;;;;;;;10.13;8.57;;;;;;;;;;6296733;22;20762;-87
2023/05/06 02:42:08;;;;;;;14.70;10.13;;;9.20;99.90;;;;;;6284636;22;20424;-87
2023/05/06 02:44:34;;;;;;;13.57;10.37;;;9.10;99.90;;;;;;6285645;22;20411;-86
2023/05/06 02:47:01;;;;;;;14.93;9.23;;;8.70;99.90;;;;;;6285790;22;20416;-87
2023/05/06 02:49:30;;;;;;;12.20;9.30;;;8.90;99.90;;;;;;6285158;22;20429;-86
2023/05/06 02:51:57;;;;;;;14.73;9.13;;;;;;;;;;6286779;22;20429;-87
2023/05/06 02:54:26;;;;;;;11.70;8.93;;;;;;;;;;6292088;22;20413;-87
2023/05/06 02:56:52;;;;;;;12.27;8.87;;;8.90;99.90;;;;;;6284732;22;20449;-87
2023/05/06 02:59:19;;;;;;;13.07;9.13;;;8.90;99.90;;;;;;6288938;22;20384;-87
2023/05/06 03:01:46;;;;;;;14.47;9.07;;;8.90;99.90;;;;;;6286281;22;20479;-87
2023/05/06 03:04:13;;;;;;;12.80;10.70;;;;;;;;;;6286453;22;20484;-87
2023/05/06 03:06:42;;;;;;;11.03;8.37;;;8.80;99.90;;;;;;6286913;22;20480;-87
2023/05/06 03:09:09;;;;;;;16.83;9.07;;;;;;;;;;6294750;22;20382;-87
2023/05/06 03:11:36;;;;;;;12.07;9.60;;;8.70;99.90;;;;;;6291316;22;20421;-87
2023/05/06 03:14:02;;;;;;;9.40;8.50;;;8.70;99.90;;;;;;6284325;22;20386;-87
2023/05/06 03:16:29;;;;;;;11.30;8.07;;;8.60;99.90;;;;;;6284356;22;20778;-87
2023/05/06 03:18:56;;;;;;;11.90;9.27;;;8.20;99.90;;;;;;6287563;22;20428;-87
2023/05/06 03:21:23;;;;;;;12.83;8.87;;;8.60;99.90;;;;;;6298182;22;20414;-86
2023/05/06 03:23:51;;;;;;;14.77;10.03;;;8.70;99.90;;;;;;6290900;22;20410;-87
2023/05/06 03:26:18;;;;;;;11.87;9.63;;;;;;;;;;6287179;22;20436;-87
2023/05/06 03:28:45;;;;;;;11.20;8.70;;;8.70;99.90;;;;;;6292517;22;20420;-87
2023/05/06 03:31:13;;;;;;;14.93;9.50;;;8.00;99.90;;;;;;6293663;22;20440;-86
2023/05/06 03:33:40;;;;;;;14.93;9.90;;;;;;;;;;6288917;22;20413;-87
2023/05/06 03:36:07;;;;;;;12.80;9.13;;;8.60;99.90;;;;;;6288253;22;20414;-87
2023/05/06 03:38:34;;;;;;;13.73;8.60;;;8.50;99.90;;;;;;6288346;22;20429;-86
2023/05/06 03:41:02;;;;;;;11.23;9.03;;;8.50;99.90;;;;;;6291595;22;20941;-87
2023/05/06 03:43:29;;;;;;;16.50;10.43;;;8.50;99.90;;;;;;6289897;22;20427;-87
2023/05/06 03:45:56;;;;;;;12.00;9.07;;;8.70;99.90;;;;;;6296458;22;20413;-87
2023/05/06 03:48:23;;;;;;;12.90;10.33;;;8.40;99.90;;;;;;6291205;22;20441;-87
2023/05/06 03:50:50;;;;;;;13.90;9.70;;;8.10;99.90;;;;;;6289380;22;20488;-87
2023/05/06 03:53:17;;;;;;;15.13;9.73;;;8.40;99.90;;;;;;6287640;22;20405;-87
2023/05/06 03:55:44;;;;;;;11.70;9.20;;;;;;;;;;6285763;22;20405;-87
2023/05/06 03:58:12;;;;;;;15.70;11.40;;;8.40;99.90;;;;;;6290721;22;20408;-86
2023/05/06 04:00:40;;;;;;;14.73;9.07;;;;;;;;;;6293540;22;20404;-87
2023/05/06 04:03:07;;;;;;;15.50;9.87;;;8.30;99.90;;;;;;6291240;22;20401;-87
2023/05/06 04:05:34;;;;;;;14.50;9.20;;;8.40;99.90;;;;;;6287763;22;20401;-87
2023/05/06 04:08:03;;;;;;;11.17;9.47;;;8.40;99.90;;;;;;6287465;22;20899;-86
2023/05/06 04:10:30;;;;;;;12.00;9.40;;;8.40;99.90;;;;;;6287912;22;20401;-87
2023/05/06 04:12:57;;;;;;;10.00;7.90;;;8.30;99.90;;;;;;6287334;22;20416;-87
2023/05/06 04:15:25;;;;;;;13.20;9.57;;;8.30;99.90;;;;;;6300192;22;20390;-87
2023/05/06 04:17:52;;;;;;;13.50;8.57;;;;;;;;;;6296886;22;20401;-86
2023/05/06 04:20:20;;;;;;;10.77;9.63;;;;;;;;;;6294336;22;20401;-86
2023/05/06 04:22:46;;;;;;;11.67;8.87;;;8.20;99.90;;;;;;6303680;22;20380;-87
2023/05/06 04:25:14;;;;;;;12.27;10.40;;;;;;;;;;6300480;22;20389;-87
2023/05/06 04:27:40;;;;;;;11.33;9.37;;;8.10;99.90;;;;;;6297214;22;20422;-87
2023/05/06 04:30:11;;;;;;;13.90;8.77;;;8.30;99.90;;;;;;6289595;22;20413;-86
2023/05/06 04:32:39;;;;;;;11.40;9.00;;;8.20;99.90;;;;;;6286966;22;20460;-87
2023/05/06 04:35:07;;;;;;;13.27;8.57;;;8.30;99.90;;;;;;6287195;22;20380;-87
2023/05/06 04:37:35;;;;;;;13.13;9.20;;;;;;;;;;6284435;22;20440;-87
2023/05/06 04:40:03;;;;;;;11.83;8.63;;;;;;;;;;6286841;22;20480;-86
2023/05/06 04:42:29;;;;;;;12.80;9.10;;;8.40;99.90;;;;;;6286802;22;20435;-87
2023/05/06 04:44:57;;;;;;;10.13;8.63;;;8.30;99.90;;;;;;6293058;22;20384;-87
2023/05/06 04:47:25;;;;;;;10.90;8.97;;;8.50;99.90;;;;;;6286376;22;20486;-87
2023/05/06 04:49:53;;;;;;;8.90;8.07;;;8.30;99.90;;;;;;6302924;22;20378;-85
2023/05/06 04:52:20;;;;;;;10.33;8.07;;;8.30;99.90;;;;;;6302876;22;20375;-83
2023/05/06 04:54:46;;;;;;;9.97;8.37;;;8.30;18.30;;;;;;6297133;22;20912;-86
2023/05/06 04:57:14;;;;;;;10.70;8.07;;;;;;;;;;6290227;22;20884;-87
2023/05/06 04:59:41;;;;;;;8.03;7.20;;;8.30;51.20;;;;;;6292473;22;20383;-87
2023/05/06 05:02:08;;;;;;;13.93;9.10;;;8.30;91.90;;;;;;6300550;22;20388;-87
2023/05/06 05:04:35;;;;;;;9.70;8.00;;;;;;;;;;6304287;22;20548;-87
2023/05/06 05:07:03;;;;;;;11.10;8.70;;;8.30;38.00;;;;;;6296540;22;20387;-87
2023/05/06 05:09:30;;;;;;;13.30;8.83;;;8.30;1.00;;;;;;6289230;22;20372;-87
2023/05/06 05:11:57;;;;;;;11.90;8.57;;;;;;;;;;6288982;22;20406;-87
2023/05/06 05:14:24;;;;;;;14.37;9.00;;;8.20;1.00;;;;;;6289034;22;20405;-87
2023/05/06 05:16:51;;;;;;;15.50;8.90;;;8.30;25.00;;;;;;6290411;22;20413;-86
2023/05/06 05:19:18;;;;;;;9.50;8.00;;;8.20;15.40;;;;;;6295222;22;20383;-86
2023/05/06 05:21:45;;;;;;;13.20;9.40;;;8.40;99.90;;;;;;6298509;22;20430;-86
2023/05/06 05:24:13;;;;;;;12.27;10.13;;;8.60;42.80;;;;;;6298961;22;20359;-86
2023/05/06 05:26:40;;;;;;;11.70;8.50;;;8.30;1.00;;;;;;6289675;22;20399;-86
2023/05/06 05:29:06;;;;;;;9.77;8.33;;;8.20;1.00;;;;;;6286505;22;20495;-86
2023/05/06 05:31:33;;;;;;;13.83;8.00;;;8.30;1.00;;;;;;6289249;22;20436;-86
2023/05/06 05:34:01;;;;;;;11.63;8.80;;;;;;;;;;6294132;22;20413;-87
2023/05/06 05:36:28;;;;;;;11.20;8.20;;;8.60;1.00;;;;;;6304967;22;20389;-87
2023/05/06 05:38:55;;;;;;;10.53;8.07;;;8.30;1.00;;;;;;6305649;22;20416;-86
2023/05/06 05:41:25;;;;;;;11.13;8.57;;;7.90;1.00;;;;;;6296856;22;20448;-86
2023/05/06 05:43:52;;;;;;;10.20;8.73;;;8.30;1.00;;;;;;6288413;22;20458;-86
2023/05/06 05:46:19;;;;;;;15.67;8.20;;;8.30;1.00;;;;;;6288924;22;20492;-86
2023/05/06 05:48:45;;;;;;;9.10;7.90;;;8.30;1.00;;;;;;6303702;22;20429;-85
2023/05/06 05:51:13;;;;;;;13.40;7.97;;;;;;;;;;6302608;22;20425;-88
2023/05/06 05:53:39;;;;;;;15.00;8.43;;;8.50;1.00;;;;;;6301935;22;20355;-87
2023/05/06 05:56:07;;;;;;;12.73;8.63;;;8.40;1.00;;;;;;6298188;22;20402;-87
2023/05/06 05:58:35;;;;;;;9.03;7.80;;;8.40;1.00;;;;;;6303004;22;20417;-87
2023/05/06 06:01:02;;;;;;;11.47;7.87;;;8.60;1.00;;;;;;6299239;22;20427;-87
2023/05/06 06:03:29;;;;;;;12.77;8.33;;;8.50;1.00;;;;;;6298363;22;20405;-87
2023/05/06 06:05:57;;;;;;;14.90;9.87;;;;;;;;;;6292795;22;20415;-88
2023/05/06 06:08:23;;;;;;;15.23;8.27;;;8.40;1.00;;;;;;6294151;22;20519;-88
2023/05/06 06:10:50;;;;;;;13.17;9.23;;;8.30;1.00;;;;;;6287264;22;20419;-86
2023/05/06 06:13:36;;;;;;;9.70;8.13;;;8.40;1.00;;;;;;6293962;22;20429;-87
2023/05/06 06:16:04;;;;;;;13.20;8.63;;;8.20;1.00;;;;;;6284455;22;20396;-87
2023/05/06 06:18:31;;;;;;;12.77;9.80;;;;;;;;;;6291919;22;20382;-87
2023/05/06 06:20:58;;;;;;;11.73;9.97;;;8.50;1.00;;;;;;6297855;22;20417;-87
2023/05/06 06:23:25;;;;;;;8.93;7.97;;;8.50;1.00;;;;;;6287154;22;20405;-87
2023/05/06 06:26:03;;;;;;;12.53;8.70;;;8.60;1.00;;;;;;6284342;22;20409;-87
2023/05/06 06:28:31;;;;;;;12.97;9.60;;;;;;;;;;6294366;22;20762;-86
2023/05/06 06:33:33;;;;;;;12.87;8.63;;;8.70;1.00;;;;;;6252888;23;20410;-87
2023/05/06 06:35:59;;;;;;;16.27;9.10;;;8.70;1.00;;;;;;6252778;23;20402;-87
2023/05/06 06:38:26;;;;;;;9.50;7.50;;;8.60;1.00;;;;;;6253947;23;20401;-87
2023/05/06 06:40:53;;;;;;;14.97;9.60;;;8.50;1.00;;;;;;6252895;23;20941;-87
2023/05/06 06:43:21;;;;;;;12.37;8.90;;;8.60;1.00;;;;;;6253824;23;20406;-87
2023/05/06 06:45:48;;;;;;;17.33;9.07;;;8.60;1.00;;;;;;6252752;23;20438;-87
2023/05/06 06:48:15;;;;;;;9.97;8.30;;;8.60;1.00;;;;;;6255284;23;21028;-87
2023/05/06 06:50:43;;;;;;;12.37;9.50;;;8.80;1.00;;;;;;6254078;22;20780;-87
2023/05/06 06:53:11;;;;;;;15.90;10.33;;;8.50;1.00;;;;;;6253918;23;20716;-88
2023/05/06 06:55:37;;;;;;;14.80;9.37;;;8.50;1.00;;;;;;6266021;22;20441;-87
2023/05/06 06:58:04;;;;;;;12.53;9.00;;;8.20;1.00;;;;;;6274815;22;20410;-87
2023/05/06 07:00:31;;;;;;;11.30;8.97;;;8.80;99.90;;;;;;6274714;22;20390;-88
2023/05/06 07:02:58;;;;;;;9.20;8.33;;;8.50;99.90;;;;;;6274809;22;20421;-87
2023/05/06 07:05:26;;;;;;;15.93;10.00;;;8.60;1.00;;;;;;6274602;22;20369;-87
2023/05/06 07:07:54;;;;;;;13.40;8.33;;;8.60;1.00;;;;;;6274327;22;20406;-88
2023/05/06 07:10:21;;;;;;;13.40;9.30;;;8.60;1.00;;;;;;6274461;22;20402;-87
2023/05/06 07:12:48;;;;;;;13.20;8.60;;;8.70;1.00;;;;;;6273933;22;20434;-87
2023/05/06 07:15:52;;;;;;;11.40;9.10;;;8.70;1.00;;;;;;6268585;22;20406;-87
2023/05/06 07:18:20;;;;;;;12.27;9.40;;;;;;;;;;6259662;23;20385;-87
2023/05/06 07:20:47;;;;;;;12.70;9.20;;;8.60;1.00;;;;;;6256253;22;20413;-87
2023/05/06 07:23:15;;;;;;;11.40;9.20;;;9.50;1.00;;;;;;6257038;23;20485;-87
2023/05/06 07:25:42;;;;;;;12.97;9.83;;;8.80;1.00;;;;;;6255956;23;20415;-89
2023/05/06 07:28:09;;;;;;;11.80;9.20;;;8.50;99.90;;;;;;6256642;23;20764;-88
2023/05/06 07:30:38;;;;;;;12.47;9.13;;;8.60;99.90;;;;;;6255996;23;20751;-88
2023/05/06 07:33:05;;;;;;;11.03;9.60;;;8.60;99.90;;;;;;6255807;22;20417;-88
2023/05/06 07:35:32;;;;;;;12.30;10.63;;;8.60;99.90;;;;;;6255362;23;20484;-87
2023/05/06 07:37:59;;;;;;;12.93;9.43;;;8.60;99.90;;;;;;6269882;22;20401;-87
2023/05/06 07:40:27;;;;;;;13.40;9.97;;;8.60;1.00;;;;;;6274398;22;20364;-86
2023/05/06 07:42:55;;;;;;;12.63;9.07;;;;;;;;;;6274036;22;20472;-88
2023/05/06 07:45:23;;;;;;;12.23;9.90;;;8.40;1.00;;;;;;6261037;23;20447;-87
2023/05/06 07:47:51;;;;;;;11.00;9.80;;;8.30;1.00;;;;;;6272367;22;20394;-87
2023/05/06 07:50:18;;;;;;;11.70;10.50;;;;;;;;;;6258971;23;20418;-88
2023/05/06 07:52:47;;;;;;;13.33;11.37;;;8.60;1.00;;;;;;6255765;22;20426;-88
2023/05/06 07:55:15;;;;;;;13.68;10.23;;;8.70;1.00;;;;;;6258517;23;20399;-88
2023/05/06 07:57:44;;;;;;;14.33;11.17;;;8.80;1.00;;;;;;6257203;23;20164;-88
2023/05/06 08:00:11;;;;;;;15.83;12.40;;;8.70;1.00;;;;;;6258204;23;20410;-88
2023/05/06 08:02:42;;;;;;;14.23;11.00;;;;;;;;;;6257182;22;20405;-88
2023/05/06 08:05:10;;;;;;;16.17;11.90;;;8.50;49.40;;;;;;6257227;23;20697;-87
2023/05/06 08:07:37;;;;;;;14.30;12.83;;;8.60;46.00;;;;;;6257140;23;20416;-88
2023/05/06 08:10:05;;;;;;;13.10;11.70;;;8.60;90.10;;;;;;6258051;23;20949;-88
2023/05/06 08:12:32;;;;;;;14.67;12.07;;;8.50;99.90;;;;;;6257079;22;20480;-88
2023/05/06 08:15:08;;;;;;;14.80;12.43;;;8.70;99.90;;;;;;6257394;23;20384;-88
2023/05/06 08:17:35;;;;;;;17.53;13.43;;;8.00;99.90;;;;;;6259740;23;20386;-88
2023/05/06 08:20:02;;;;;;;14.77;13.23;;;8.70;99.90;;;;;;6257887;23;20406;-88
2023/05/06 08:22:29;;;;;;;15.10;13.60;;;8.70;99.90;;;;;;6257691;22;20429;-88
2023/05/06 08:24:56;;;;;;;16.37;13.57;;;8.60;99.90;;;;;;6258209;23;20399;-89
2023/05/06 08:27:23;;;;;;;16.40;13.50;;;8.60;99.90;;;;;;6257048;23;20438;-88
2023/05/06 08:29:50;;;;;;;20.03;17.13;;;8.40;99.90;;;;;;6265437;23;20446;-89
2023/05/06 08:32:18;;;;;;;20.17;15.10;;;8.60;99.90;;;;;;6272478;22;20392;-87
2023/05/06 08:34:46;;;;;;;17.00;14.67;;;8.60;99.90;;;;;;6273781;22;20410;-86
2023/05/06 08:37:13;;;;;;;17.50;14.03;;;;;;;;;;6272034;23;20398;-87
2023/05/06 08:39:40;;;;;;;17.77;15.00;;;8.70;99.90;;;;;;6262813;23;20493;-87
2023/05/06 08:42:13;;;;;;;15.90;13.70;;;8.60;99.90;;;;;;6255820;22;20469;-87
2023/05/06 08:44:40;;;;;;;15.20;13.60;;;;;;;;;;6258042;23;20450;-88
2023/05/06 08:47:07;;;;;;;18.00;14.97;;;8.80;99.90;;;;;;6271974;22;20413;-87
2023/05/06 08:49:36;;;;;;;17.40;14.17;;;8.80;99.90;;;;;;6269035;22;20442;-88
2023/05/06 08:52:05;;;;;;;16.43;14.73;;;8.70;99.90;;;;;;6265150;22;20957;-88
2023/05/06 08:54:35;;;;;;;17.43;15.63;;;8.80;99.90;;;;;;6258955;23;20410;-87
2023/05/06 08:57:05;;;;;;;20.73;16.73;;;8.70;99.90;;;;;;6256347;23;20413;-83
2023/05/06 08:59:33;;;;;;;18.03;16.13;;;;;;;;;;6253582;23;20367;-86
2023/05/06 09:02:01;;;;;;;18.97;16.27;;;8.80;99.90;;;;;;6257491;22;20426;-86
2023/05/06 09:04:28;;;;;;;18.53;15.77;;;9.20;99.90;;;;;;6252788;23;20424;-86
2023/05/06 09:07:00;;;;;;;17.00;15.10;;;8.80;99.90;;;;;;6253152;23;20405;-86
2023/05/06 09:09:27;;;;;;;16.83;15.07;;;8.90;99.90;;;;;;6271956;22;20414;-86
2023/05/06 09:11:56;;;;;;;18.80;16.33;;;9.10;99.90;;;;;;6275680;22;20406;-86
2023/05/06 09:14:23;;;;;;;16.90;15.20;;;8.70;99.90;;;;;;6275543;22;20410;-86
2023/05/06 09:16:52;;;;;;;20.00;16.33;;;8.50;99.90;;;;;;6275846;22;20388;-87
2023/05/06 09:19:20;;;;;;;17.60;15.10;;;8.90;99.90;;;;;;6275239;22;20398;-85
2023/05/06 09:21:48;;;;;;;13.50;11.73;;;9.00;99.90;;;;;;6274198;22;20422;-86
2023/05/06 09:24:17;;;;;;;16.20;14.10;;;8.90;99.90;;;;;;6273905;23;20881;-87
2023/05/06 09:26:45;;;;;;;22.80;18.77;;;9.10;99.90;;;;;;6270441;23;20862;-86
2023/05/06 09:29:13;;;;;;;18.53;15.70;;;9.20;99.90;;;;;;6273828;23;20408;-86
2023/05/06 09:31:51;;;;;;;14.47;11.93;;;9.20;99.90;;;;;;6274970;22;20453;-86
2023/05/06 09:34:19;;;;;;;13.90;11.67;;;9.20;99.90;;;;;;6274745;22;20370;-87
2023/05/06 09:36:47;;;;;;;13.90;12.70;;;8.90;39.90;;;;;;6271395;23;20429;-87
2023/05/06 09:39:14;;;;;;;13.10;11.80;;;9.20;3.60;;;;;;6271589;23;20394;-85
2023/05/06 09:41:43;;;;;;;12.40;11.20;;;9.20;1.00;;;;;;6266786;22;20422;-87
2023/05/06 09:44:11;;;;;;;12.90;11.03;;;9.20;1.00;;;;;;6266721;23;20406;-87
2023/05/06 09:46:39;;;;;;;12.10;10.33;;;9.30;31.90;;;;;;6262115;23;20466;-87
2023/05/06 09:49:07;;;;;;;11.83;9.70;;;9.30;1.00;;;;;;6270180;23;20464;-88
2023/05/06 09:51:34;;;;;;;11.60;10.43;;;9.50;79.00;;;;;;6259353;22;20732;-87
2023/05/06 09:54:01;;;;;;;12.33;11.03;;;9.30;1.00;;;;;;6256302;23;20754;-87
2023/05/06 09:56:30;;;;;;;11.27;9.00;;;9.30;1.00;;;;;;6254193;23;20441;-86
2023/05/06 09:59:03;;;;;;;12.53;10.30;;;9.20;1.00;;;;;;6254130;23;20404;-89
2023/05/06 10:01:31;;;;;;;11.73;10.53;;;9.40;1.00;;;;;;6228940;23;20401;-86
2023/05/06 10:04:00;;;;;;;13.47;12.07;;;9.30;1.00;;;;;;6256262;23;20489;-87
2023/05/06 10:06:28;;;;;;;12.93;10.40;;;9.50;26.80;;;;;;6273512;22;20405;-85
2023/05/06 10:08:55;;;;;;;10.20;9.20;;;9.60;62.20;;;;;;6274160;22;20410;-86
2023/05/06 10:11:23;;;;;;;10.37;9.33;;;9.40;1.00;;;;;;6255732;22;20433;-86
2023/05/06 10:13:50;;;;;;;11.23;9.70;;;9.40;1.00;;;;;;6258980;23;20376;-87
2023/05/06 10:16:19;;;;;;;10.33;9.40;;;9.40;1.00;;;;;;6258406;23;20489;-88
2023/05/06 10:18:48;;;;;;;13.80;11.27;;;9.00;1.00;;;;;;6254997;23;20384;-88
2023/05/06 10:21:21;;;;;;;10.67;9.57;;;9.40;1.00;;;;;;6257655;22;20484;-88
2023/05/06 10:23:55;;;;;;;12.00;9.90;;;9.50;1.00;;;;;;6260259;23;20383;-86
2023/05/06 10:26:23;;;;;;;9.60;8.70;;;9.40;1.00;;;;;;6259220;23;20405;-87
2023/05/06 10:28:53;;;;;;;9.57;8.67;;;9.40;1.00;;;;;;6255963;23;20921;-88
2023/05/06 10:31:21;;;;;;;10.50;8.87;;;9.70;1.00;;;;;;6256679;22;20825;-87
2023/05/06 10:33:51;;;;;;;9.80;8.57;;;9.50;1.00;;;;;;6257043;23;20361;-87
2023/05/06 10:36:22;;;;;;;10.27;8.40;;;9.80;1.00;;;;;;6257529;23;20377;-87
2023/05/06 10:38:53;;;;;;;10.43;9.43;;;9.50;99.90;;;;;;6255749;23;20372;-86
2023/05/06 10:41:22;;;;;;;11.80;9.60;;;9.50;1.00;;;;;;6267323;22;20481;-87
2023/05/06 10:43:55;;;;;;;10.80;9.70;;;9.40;1.00;;;;;;6273851;22;20411;-86
2023/05/06 10:46:24;;;;;;;11.37;9.40;;;9.40;1.00;;;;;;6274502;22;20365;-89
2023/05/06 10:49:18;;;;;;;9.97;8.00;;;9.50;1.00;;;;;;6269493;23;20399;-87
2023/05/06 10:51:47;;;;;;;11.13;8.97;;;9.70;1.00;;;;;;6264246;22;20396;-88
2023/05/06 10:54:22;;;;;;;10.83;9.10;;;9.50;1.00;;;;;;6266760;23;20923;-89
2023/05/06 10:57:07;;;;;;;10.60;9.60;;;9.50;99.90;;;;;;6261546;23;20378;-87
2023/05/06 10:59:34;;;;;;;11.00;9.23;;;9.50;99.90;;;;;;6260957;22;20457;-86
2023/05/06 11:02:10;;;;;;;11.07;9.10;;;9.50;1.00;;;;;;6270691;22;20392;-88
2023/05/06 11:04:37;;;;;;;9.67;8.67;;;9.40;1.00;;;;;;6271880;23;20326;-88
2023/05/06 11:07:08;;;;;;;12.03;10.33;;;9.50;1.00;;;;;;6264563;23;20410;-88
2023/05/06 11:09:54;;;;;;;10.53;9.50;;;9.50;1.00;;;;;;6262053;23;20922;-86
2023/05/06 11:12:21;;;;;;;11.27;10.17;;;9.60;1.00;;;;;;6265767;22;20410;-88
2023/05/06 11:14:48;;;;;;;10.60;8.87;;;;;;;;;;6260090;23;20440;-88
2023/05/06 11:17:32;;;;;;;10.30;9.10;;;9.40;1.00;;;;;;6269500;22;20386;-87
2023/05/06 11:20:19;;;;;;;10.33;9.30;;;9.30;1.00;;;;;;6261656;23;20459;-86
2023/05/06 11:22:46;;;;;;;9.00;8.10;;;9.30;1.00;;;;;;6258880;22;20416;-86
2023/05/06 11:25:13;;;;;;;9.97;8.50;;;9.30;1.00;;;;;;6257561;23;20385;-87
2023/05/06 11:27:40;;;;;;;8.60;7.90;;;9.20;1.00;;;;;;6256479;23;20376;-88
2023/05/06 11:30:14;;;;;;;10.17;9.17;;;9.20;1.00;;;;;;6256896;23;20499;-88
2023/05/06 11:32:43;;;;;;;8.40;7.60;;;9.20;1.00;;;;;;6257895;22;20465;-87
2023/05/06 11:35:13;;;;;;;8.07;7.23;;;9.10;1.00;;;;;;6269275;23;20376;-90
2023/05/06 11:37:42;;;;;;;8.80;8.00;;;9.20;1.00;;;;;;6273803;23;20420;-90
2023/05/06 11:40:19;;;;;;;7.63;6.83;;;9.20;1.00;;;;;;6267327;23;20376;-88
2023/05/06 11:42:46;;;;;;;6.60;6.00;;;;;;;;;;6260022;22;20400;-86
2023/05/06 11:45:16;;;;;;;8.40;7.60;;;9.10;1.00;;;;;;6255653;23;20384;-87
2023/05/06 11:47:45;;;;;;;7.63;6.93;;;9.10;1.00;;;;;;6256266;23;20878;-86
2023/05/06 11:50:11;;;;;;;7.23;6.53;;;8.90;1.00;;;;;;6265521;23;20483;-88
2023/05/06 11:52:39;;;;;;;13.93;7.00;;;8.70;1.00;;;;;;6266417;22;20437;-87
2023/05/06 11:55:09;;;;;;;8.73;7.40;;;9.00;1.00;;;;;;6258747;23;20412;-88
2023/05/06 11:57:43;;;;;;;7.00;6.50;;;9.00;1.00;;;;;;6261143;23;20402;-87
2023/05/06 12:00:11;;;;;;;7.73;7.03;;;9.00;1.00;;;;;;6259506;23;20477;-87
2023/05/06 12:02:38;;;;;;;6.97;6.30;;;9.00;1.00;;;;;;6257894;22;20470;-87
2023/05/06 12:05:09;;;;;;;7.80;6.70;;;9.00;1.00;;;;;;6256703;23;20405;-86
2023/05/06 12:07:36;;;;;;;7.83;6.77;;;9.10;1.00;;;;;;6259084;23;20449;-87
2023/05/06 12:10:04;;;;;;;8.80;6.80;;;9.10;1.00;;;;;;6257245;23;20824;-87
2023/05/06 12:12:32;;;;;;;7.40;6.70;;;9.10;1.00;;;;;;6256482;22;20457;-87
2023/05/06 12:14:59;;;;;;;7.03;6.30;;;9.10;99.90;;;;;;6257423;23;20410;-87
2023/05/06 12:17:26;;;;;;;7.23;6.67;;;9.10;99.90;;;;;;6256653;23;20406;-86
2023/05/06 12:19:53;;;;;;;6.37;5.77;;;9.10;99.90;;;;;;6257183;23;20437;-88
2023/05/06 12:22:23;;;;;;;6.40;5.90;;;9.30;99.90;;;;;;6255653;22;20424;-87
2023/05/06 12:24:50;;;;;;;9.47;8.33;;;9.10;99.90;;;;;;6255850;23;20401;-87
2023/05/06 12:27:32;;;;;;;8.53;6.63;;;9.10;99.90;;;;;;6255986;23;20923;-87
2023/05/06 12:29:59;;;;;;;6.23;5.73;;;9.00;99.90;;;;;;6257192;23;20405;-89
2023/05/06 13:00:04;;;;;;;7.60;6.67;;;9.00;99.90;;;;;;6261220;23;20472;-86
2023/05/06 13:02:31;;;;;;;7.00;6.23;;;9.10;99.90;;;;;;6259213;23;20394;-86
2023/05/06 13:04:59;;;;;;;6.03;5.43;;;9.40;1.00;;;;;;6256502;23;20433;-87
2023/05/06 13:07:26;;;;;;;6.80;6.20;;;9.30;99.90;;;;;;6257385;23;20406;-87
2023/05/06 13:09:53;;;;;;;6.67;6.00;;;9.20;99.90;;;;;;6273858;22;20467;-86
2023/05/06 13:12:20;;;;;;;6.40;5.90;;;9.40;99.90;;;;;;6272603;22;20381;-86
2023/05/06 13:14:47;;;;;;;7.30;6.33;;;9.10;99.90;;;;;;6264660;23;20429;-87
2023/05/06 13:17:14;;;;;;;8.83;6.60;;;9.10;99.90;;;;;;6274970;22;20414;-87
2023/05/06 13:19:41;;;;;;;6.77;6.00;;;9.10;99.90;;;;;;6263545;22;20423;-86
2023/05/06 13:22:11;;;;;;;6.13;5.47;;;9.20;99.90;;;;;;6256492;23;20436;-86
2023/05/06 13:24:37;;;;;;;6.60;5.90;;;9.10;99.90;;;;;;6259091;23;20432;-84
2023/05/06 13:27:04;;;;;;;7.20;6.50;;;9.10;95.10;;;;;;6254121;23;20784;-86
2023/05/06 13:29:31;;;;;;;6.70;6.10;;;9.10;99.90;;;;;;6253536;22;20456;-86
2023/05/06 13:31:59;;;;;;;5.83;5.27;;;9.00;99.90;;;;;;6250767;23;20387;-86
2023/05/06 13:34:26;;;;;;;6.00;5.40;;;9.00;99.90;;;;;;6251214;23;20721;-86
2023/05/06 13:36:55;;;;;;;6.67;5.97;;;9.00;99.90;;;;;;6260283;23;20368;-86
2023/05/06 13:39:23;;;;;;;8.10;5.40;;;9.00;99.90;;;;;;6254554;22;20501;-86
2023/05/06 13:41:51;;;;;;;6.70;6.10;;;9.00;99.90;;;;;;6251971;23;20440;-86
2023/05/06 13:44:18;;;;;;;8.43;6.40;;;9.20;99.90;;;;;;6251445;23;20441;-86
2023/05/06 13:46:45;;;;;;;7.67;5.73;;;9.20;99.90;;;;;;6261038;23;20414;-86
2023/05/06 13:49:12;;;;;;;5.07;4.57;;;9.40;99.90;;;;;;6261386;22;20405;-86
2023/05/06 13:51:39;;;;;;;5.33;4.83;;;9.30;99.90;;;;;;6252564;23;20473;-87
2023/05/06 13:54:06;;;;;;;5.30;4.90;;;9.30;99.90;;;;;;6252433;23;20402;-87